sensor_id;sensor_type;location;lat;lon;timestamp;pressure;altitude;pressure_sealevel;temperature;humidity
63194;BME280;49289;51.670;5.624;2023-03-14T00:01:36;99082.84;;;16.69;64.50
63194;BME280;49289;51.670;5.624;2023-03-14T00:03:24;99102.44;;;17.07;63.32
63194;BME280;49289;51.670;5.624;2023-03-14T00:07:00;99083.02;;;16.75;63.69
63194;BME280;49289;51.670;5.624;2023-03-14T00:08:47;99099.67;;;16.40;64.89
63194;BME280;49289;51.670;5.624;2023-03-14T00:10:35;99095.52;;;16.57;64.05
63194;BME280;49289;51.670;5.624;2023-03-14T00:12:22;99095.90;;;16.60;63.00
63194;BME280;49289;51.670;5.624;2023-03-14T00:14:10;99083.23;;;16.04;62.92
63194;BME280;49289;51.670;5.624;2023-03-14T00:15:58;99083.98;;;16.00;62.54
63194;BME280;49289;51.670;5.624;2023-03-14T00:17:45;99102.62;;;15.68;63.54
63194;BME280;49289;51.670;5.624;2023-03-14T00:19:33;99095.80;;;16.05;61.78
63194;BME280;49289;51.670;5.624;2023-03-14T00:21:22;99080.34;;;16.19;60.85
63194;BME280;49289;51.670;5.624;2023-03-14T00:23:10;99084.56;;;16.46;60.29
63194;BME280;49289;51.670;5.624;2023-03-14T00:24:58;99088.82;;;16.43;59.83
63194;BME280;49289;51.670;5.624;2023-03-14T00:26:47;99094.14;;;16.13;60.35
63194;BME280;49289;51.670;5.624;2023-03-14T00:28:35;99097.64;;;16.00;59.98
63194;BME280;49289;51.670;5.624;2023-03-14T00:30:23;99081.75;;;15.92;59.36
63194;BME280;49289;51.670;5.624;2023-03-14T00:32:11;99088.45;;;16.03;57.96
63194;BME280;49289;51.670;5.624;2023-03-14T00:33:58;99105.81;;;16.05;58.81
63194;BME280;49289;51.670;5.624;2023-03-14T00:35:48;99092.65;;;16.05;58.37
63194;BME280;49289;51.670;5.624;2023-03-14T00:37:32;99099.83;;;15.75;59.38
63194;BME280;49289;51.670;5.624;2023-03-14T00:39:19;99097.88;;;15.81;58.51
63194;BME280;49289;51.670;5.624;2023-03-14T00:41:09;99104.55;;;15.87;58.32
63194;BME280;49289;51.670;5.624;2023-03-14T00:42:55;99116.36;;;16.35;57.33
63194;BME280;49289;51.670;5.624;2023-03-14T00:44:42;99105.23;;;16.20;57.39
63194;BME280;49289;51.670;5.624;2023-03-14T00:46:29;99113.23;;;16.34;56.71
63194;BME280;49289;51.670;5.624;2023-03-14T00:48:17;99119.55;;;15.81;57.43
63194;BME280;49289;51.670;5.624;2023-03-14T00:50:05;99104.17;;;15.92;57.90
63194;BME280;49289;51.670;5.624;2023-03-14T00:51:53;99125.92;;;16.31;56.66
63194;BME280;49289;51.670;5.624;2023-03-14T00:53:41;99118.80;;;16.24;56.43
63194;BME280;49289;51.670;5.624;2023-03-14T00:55:29;99123.18;;;15.93;57.32
63194;BME280;49289;51.670;5.624;2023-03-14T00:57:18;99104.32;;;16.21;55.68
63194;BME280;49289;51.670;5.624;2023-03-14T00:59:06;99111.31;;;16.28;56.11
63194;BME280;49289;51.670;5.624;2023-03-14T01:00:53;99128.88;;;15.86;56.00
63194;BME280;49289;51.670;5.624;2023-03-14T01:02:40;99127.52;;;15.89;56.21
63194;BME280;49289;51.670;5.624;2023-03-14T01:04:28;99114.92;;;15.36;56.60
63194;BME280;49289;51.670;5.624;2023-03-14T01:06:23;99125.00;;;15.81;56.06
63194;BME280;49289;51.670;5.624;2023-03-14T01:08:11;99104.27;;;15.82;55.75
63194;BME280;49289;51.670;5.624;2023-03-14T01:09:59;99104.64;;;15.56;56.19
63194;BME280;49289;51.670;5.624;2023-03-14T01:11:47;99119.46;;;15.84;56.28
63194;BME280;49289;51.670;5.624;2023-03-14T01:13:35;99115.35;;;15.90;55.44
63194;BME280;49289;51.670;5.624;2023-03-14T01:15:24;99117.48;;;15.52;56.61
63194;BME280;49289;51.670;5.624;2023-03-14T01:17:12;99098.03;;;15.73;55.84
63194;BME280;49289;51.670;5.624;2023-03-14T01:19:00;99115.95;;;15.47;56.29
63194;BME280;49289;51.670;5.624;2023-03-14T01:20:49;99108.49;;;15.98;55.13
63194;BME280;49289;51.670;5.624;2023-03-14T01:22:36;99090.38;;;15.51;55.43
63194;BME280;49289;51.670;5.624;2023-03-14T01:24:23;99108.44;;;15.61;55.38
63194;BME280;49289;51.670;5.624;2023-03-14T01:26:11;99115.81;;;15.44;56.47
63194;BME280;49289;51.670;5.624;2023-03-14T01:27:59;99120.80;;;15.24;57.30
63194;BME280;49289;51.670;5.624;2023-03-14T01:29:47;99115.27;;;15.35;56.83
63194;BME280;49289;51.670;5.624;2023-03-14T01:31:35;99109.59;;;15.30;57.24
63194;BME280;49289;51.670;5.624;2023-03-14T01:33:23;99109.34;;;15.57;57.17
63194;BME280;49289;51.670;5.624;2023-03-14T01:35:11;99102.75;;;15.40;57.57
63194;BME280;49289;51.670;5.624;2023-03-14T01:36:58;99112.52;;;15.79;56.58
63194;BME280;49289;51.670;5.624;2023-03-14T01:38:46;99080.45;;;15.90;55.58
63194;BME280;49289;51.670;5.624;2023-03-14T01:40:34;99095.72;;;16.01;55.07
63194;BME280;49289;51.670;5.624;2023-03-14T01:42:22;99091.25;;;16.05;54.85
63194;BME280;49289;51.670;5.624;2023-03-14T01:44:11;99088.58;;;16.08;54.46
63194;BME280;49289;51.670;5.624;2023-03-14T01:46:34;99085.22;;;16.19;54.33
63194;BME280;49289;51.670;5.624;2023-03-14T01:48:20;99077.43;;;15.74;54.67
63194;BME280;49289;51.670;5.624;2023-03-14T01:49:53;99079.99;;;16.13;54.88
63194;BME280;49289;51.670;5.624;2023-03-14T01:51:42;99080.13;;;15.97;54.98
63194;BME280;49289;51.670;5.624;2023-03-14T01:53:28;99086.24;;;15.26;57.01
63194;BME280;49289;51.670;5.624;2023-03-14T01:55:18;99088.17;;;15.22;57.16
63194;BME280;49289;51.670;5.624;2023-03-14T01:57:07;99077.84;;;15.57;56.77
63194;BME280;49289;51.670;5.624;2023-03-14T01:58:53;99076.97;;;15.28;57.30
63194;BME280;49289;51.670;5.624;2023-03-14T02:00:40;99054.13;;;15.34;56.65
63194;BME280;49289;51.670;5.624;2023-03-14T02:02:27;99067.50;;;15.09;57.15
63194;BME280;49289;51.670;5.624;2023-03-14T02:04:14;99061.11;;;15.77;56.16
63194;BME280;49289;51.670;5.624;2023-03-14T02:06:03;99058.17;;;16.11;54.42
63194;BME280;49289;51.670;5.624;2023-03-14T02:07:50;99074.35;;;15.50;56.01
63194;BME280;49289;51.670;5.624;2023-03-14T02:09:36;99044.75;;;16.06;55.41
63194;BME280;49289;51.670;5.624;2023-03-14T02:11:26;99064.08;;;15.53;56.73
63194;BME280;49289;51.670;5.624;2023-03-14T02:13:11;99078.06;;;15.21;57.88
63194;BME280;49289;51.670;5.624;2023-03-14T02:15:00;99059.50;;;15.01;58.34
63194;BME280;49289;51.670;5.624;2023-03-14T02:16:47;99054.81;;;15.14;58.24
63194;BME280;49289;51.670;5.624;2023-03-14T02:18:37;99060.72;;;15.24;58.60
63194;BME280;49289;51.670;5.624;2023-03-14T02:20:34;99063.86;;;15.09;58.43
63194;BME280;49289;51.670;5.624;2023-03-14T02:22:21;99060.20;;;15.11;58.97
63194;BME280;49289;51.670;5.624;2023-03-14T02:24:12;99057.36;;;15.46;59.24
63194;BME280;49289;51.670;5.624;2023-03-14T02:26:00;99069.84;;;15.60;58.41
63194;BME280;49289;51.670;5.624;2023-03-14T02:27:47;99054.83;;;15.77;58.08
63194;BME280;49289;51.670;5.624;2023-03-14T02:29:36;99059.94;;;14.86;59.73
63194;BME280;49289;51.670;5.624;2023-03-14T02:31:23;99052.71;;;15.34;59.36
63194;BME280;49289;51.670;5.624;2023-03-14T02:33:11;99057.20;;;14.67;61.10
63194;BME280;49289;51.670;5.624;2023-03-14T02:35:00;99075.78;;;14.81;61.14
63194;BME280;49289;51.670;5.624;2023-03-14T02:36:46;99051.77;;;14.97;61.46
63194;BME280;49289;51.670;5.624;2023-03-14T02:38:33;99068.36;;;14.99;62.00
63194;BME280;49289;51.670;5.624;2023-03-14T02:40:21;99058.75;;;15.57;60.36
63194;BME280;49289;51.670;5.624;2023-03-14T02:42:08;99061.20;;;15.26;61.23
63194;BME280;49289;51.670;5.624;2023-03-14T02:43:56;99053.49;;;15.30;60.21
63194;BME280;49289;51.670;5.624;2023-03-14T02:45:47;99056.70;;;15.41;60.23
63194;BME280;49289;51.670;5.624;2023-03-14T02:47:35;99057.42;;;15.19;60.45
63194;BME280;49289;51.670;5.624;2023-03-14T02:49:23;99038.11;;;15.42;59.20
63194;BME280;49289;51.670;5.624;2023-03-14T02:51:11;99069.32;;;15.24;59.58
63194;BME280;49289;51.670;5.624;2023-03-14T02:52:58;99058.58;;;15.24;58.89
63194;BME280;49289;51.670;5.624;2023-03-14T02:54:45;99046.88;;;14.87;59.34
63194;BME280;49289;51.670;5.624;2023-03-14T02:56:33;99059.28;;;15.30;59.43
63194;BME280;49289;51.670;5.624;2023-03-14T02:58:21;99053.39;;;15.62;57.58
63194;BME280;49289;51.670;5.624;2023-03-14T03:00:11;99040.81;;;15.10;58.83
63194;BME280;49289;51.670;5.624;2023-03-14T03:01:59;99059.73;;;15.65;57.52
63194;BME280;49289;51.670;5.624;2023-03-14T03:03:46;99050.33;;;15.33;58.52
63194;BME280;49289;51.670;5.624;2023-03-14T03:05:34;99037.67;;;15.25;58.74
63194;BME280;49289;51.670;5.624;2023-03-14T03:07:21;99047.00;;;15.93;56.98
63194;BME280;49289;51.670;5.624;2023-03-14T03:09:08;99041.60;;;16.20;55.89
63194;BME280;49289;51.670;5.624;2023-03-14T03:10:55;99030.42;;;16.14;56.12
63194;BME280;49289;51.670;5.624;2023-03-14T03:12:43;99050.08;;;16.02;56.26
63194;BME280;49289;51.670;5.624;2023-03-14T03:14:30;99032.09;;;15.76;56.53
63194;BME280;49289;51.670;5.624;2023-03-14T03:16:19;99039.21;;;16.19;55.99
63194;BME280;49289;51.670;5.624;2023-03-14T03:18:06;99049.09;;;15.91;56.38
63194;BME280;49289;51.670;5.624;2023-03-14T03:19:53;99049.41;;;15.81;56.76
63194;BME280;49289;51.670;5.624;2023-03-14T03:21:40;99038.16;;;15.81;56.70
63194;BME280;49289;51.670;5.624;2023-03-14T03:23:27;99035.26;;;16.03;56.08
63194;BME280;49289;51.670;5.624;2023-03-14T03:25:14;99033.38;;;15.79;57.20
63194;BME280;49289;51.670;5.624;2023-03-14T03:27:02;99051.01;;;15.31;57.63
63194;BME280;49289;51.670;5.624;2023-03-14T03:28:50;99031.96;;;15.11;58.57
63194;BME280;49289;51.670;5.624;2023-03-14T03:30:39;99026.34;;;15.92;57.01
63194;BME280;49289;51.670;5.624;2023-03-14T03:32:26;99036.93;;;15.60;57.38
63194;BME280;49289;51.670;5.624;2023-03-14T03:34:13;99032.37;;;15.57;57.69
63194;BME280;49289;51.670;5.624;2023-03-14T03:36:00;99019.65;;;16.08;56.70
63194;BME280;49289;51.670;5.624;2023-03-14T03:37:48;99022.94;;;16.17;55.72
63194;BME280;49289;51.670;5.624;2023-03-14T03:39:37;99037.34;;;15.80;56.42
63194;BME280;49289;51.670;5.624;2023-03-14T03:41:25;99019.38;;;16.10;56.10
63194;BME280;49289;51.670;5.624;2023-03-14T03:43:13;99022.93;;;15.93;55.75
63194;BME280;49289;51.670;5.624;2023-03-14T03:45:00;99038.75;;;15.48;57.76
63194;BME280;49289;51.670;5.624;2023-03-14T03:46:48;99020.63;;;15.49;57.57
63194;BME280;49289;51.670;5.624;2023-03-14T03:48:37;99030.41;;;15.56;57.46
63194;BME280;49289;51.670;5.624;2023-03-14T03:50:24;99034.20;;;15.91;56.97
63194;BME280;49289;51.670;5.624;2023-03-14T03:52:12;99031.55;;;15.92;57.46
63194;BME280;49289;51.670;5.624;2023-03-14T03:53:59;99026.25;;;15.99;56.66
63194;BME280;49289;51.670;5.624;2023-03-14T03:55:46;99026.72;;;15.68;57.40
63194;BME280;49289;51.670;5.624;2023-03-14T03:57:33;99033.30;;;15.20;59.19
63194;BME280;49289;51.670;5.624;2023-03-14T03:59:20;99024.48;;;15.76;57.51
63194;BME280;49289;51.670;5.624;2023-03-14T04:01:09;99011.97;;;15.62;57.79
63194;BME280;49289;51.670;5.624;2023-03-14T04:02:55;99021.98;;;15.55;57.07
63194;BME280;49289;51.670;5.624;2023-03-14T04:04:42;99007.99;;;15.79;57.15
63194;BME280;49289;51.670;5.624;2023-03-14T04:06:31;99023.66;;;15.87;56.25
63194;BME280;49289;51.670;5.624;2023-03-14T04:08:19;99002.57;;;15.76;56.21
63194;BME280;49289;51.670;5.624;2023-03-14T04:10:07;99020.48;;;15.79;56.74
63194;BME280;49289;51.670;5.624;2023-03-14T04:11:55;99019.41;;;15.79;56.47
63194;BME280;49289;51.670;5.624;2023-03-14T04:13:42;99017.57;;;16.02;56.26
63194;BME280;49289;51.670;5.624;2023-03-14T04:15:30;99023.25;;;15.87;56.46
63194;BME280;49289;51.670;5.624;2023-03-14T04:17:17;99014.64;;;16.05;55.76
63194;BME280;49289;51.670;5.624;2023-03-14T04:19:04;99016.90;;;15.85;56.18
63194;BME280;49289;51.670;5.624;2023-03-14T04:20:51;99019.40;;;15.80;56.12
63194;BME280;49289;51.670;5.624;2023-03-14T04:22:38;99013.64;;;15.55;56.90
63194;BME280;49289;51.670;5.624;2023-03-14T04:24:25;99016.73;;;15.86;56.13
63194;BME280;49289;51.670;5.624;2023-03-14T04:26:12;98995.78;;;15.87;56.32
63194;BME280;49289;51.670;5.624;2023-03-14T04:27:59;99012.56;;;15.77;57.24
63194;BME280;49289;51.670;5.624;2023-03-14T04:29:47;98996.80;;;15.22;59.07
63194;BME280;49289;51.670;5.624;2023-03-14T04:31:35;99003.69;;;14.99;59.58
63194;BME280;49289;51.670;5.624;2023-03-14T04:33:24;99017.50;;;15.35;59.02
63194;BME280;49289;51.670;5.624;2023-03-14T04:35:12;98860.38;;;14.80;58.30
63194;BME280;49289;51.670;5.624;2023-03-14T04:36:59;99015.95;;;15.62;58.79
63194;BME280;49289;51.670;5.624;2023-03-14T04:38:47;99010.53;;;15.38;59.04
63194;BME280;49289;51.670;5.624;2023-03-14T04:40:36;99003.83;;;15.06;59.70
63194;BME280;49289;51.670;5.624;2023-03-14T04:42:22;99017.47;;;15.15;60.22
63194;BME280;49289;51.670;5.624;2023-03-14T04:44:10;98993.48;;;15.44;59.27
63194;BME280;49289;51.670;5.624;2023-03-14T04:45:59;99010.63;;;15.83;58.03
63194;BME280;49289;51.670;5.624;2023-03-14T04:47:46;99006.48;;;16.17;57.45
63194;BME280;49289;51.670;5.624;2023-03-14T04:49:35;98991.00;;;15.93;57.56
63194;BME280;49289;51.670;5.624;2023-03-14T04:51:22;99010.81;;;15.82;58.77
63194;BME280;49289;51.670;5.624;2023-03-14T04:53:10;98992.03;;;15.29;59.71
63194;BME280;49289;51.670;5.624;2023-03-14T04:54:57;99014.79;;;15.09;60.74
63194;BME280;49289;51.670;5.624;2023-03-14T04:56:45;98991.69;;;14.90;61.35
63194;BME280;49289;51.670;5.624;2023-03-14T04:58:33;98992.54;;;15.13;60.42
63194;BME280;49289;51.670;5.624;2023-03-14T05:00:22;98994.14;;;14.61;63.43
63194;BME280;49289;51.670;5.624;2023-03-14T05:02:09;99010.16;;;14.32;65.29
63194;BME280;49289;51.670;5.624;2023-03-14T05:03:56;99011.89;;;15.11;64.19
63194;BME280;49289;51.670;5.624;2023-03-14T05:05:43;99012.41;;;14.93;64.75
63194;BME280;49289;51.670;5.624;2023-03-14T05:07:30;99017.31;;;14.50;66.34
63194;BME280;49289;51.670;5.624;2023-03-14T05:09:17;99017.56;;;14.37;67.17
63194;BME280;49289;51.670;5.624;2023-03-14T05:11:05;99018.48;;;14.32;67.56
63194;BME280;49289;51.670;5.624;2023-03-14T05:12:53;99022.44;;;14.47;67.40
63194;BME280;49289;51.670;5.624;2023-03-14T05:14:41;99002.03;;;14.70;66.81
63194;BME280;49289;51.670;5.624;2023-03-14T05:16:28;99023.31;;;14.73;66.19
63194;BME280;49289;51.670;5.624;2023-03-14T05:18:15;98995.84;;;14.41;67.80
63194;BME280;49289;51.670;5.624;2023-03-14T05:20:02;99004.13;;;14.66;67.60
63194;BME280;49289;51.670;5.624;2023-03-14T05:21:50;99009.90;;;14.34;68.62
63194;BME280;49289;51.670;5.624;2023-03-14T05:23:37;98991.72;;;14.16;69.97
63194;BME280;49289;51.670;5.624;2023-03-14T05:25:26;99012.19;;;14.11;70.44
63194;BME280;49289;51.670;5.624;2023-03-14T05:27:13;98990.88;;;14.18;70.25
63194;BME280;49289;51.670;5.624;2023-03-14T05:29:00;98998.45;;;14.58;69.12
63194;BME280;49289;51.670;5.624;2023-03-14T05:30:47;98988.03;;;14.60;68.99
63194;BME280;49289;51.670;5.624;2023-03-14T05:32:34;99001.43;;;14.28;69.87
63194;BME280;49289;51.670;5.624;2023-03-14T05:34:21;99005.33;;;14.16;71.05
63194;BME280;49289;51.670;5.624;2023-03-14T05:36:09;98987.80;;;13.98;70.41
63194;BME280;49289;51.670;5.624;2023-03-14T05:37:57;98988.76;;;14.14;70.25
63194;BME280;49289;51.670;5.624;2023-03-14T05:39:45;99002.29;;;14.12;70.64
63194;BME280;49289;51.670;5.624;2023-03-14T05:41:33;98984.41;;;14.09;70.68
63194;BME280;49289;51.670;5.624;2023-03-14T05:43:21;98981.11;;;14.59;69.00
63194;BME280;49289;51.670;5.624;2023-03-14T05:45:09;98984.52;;;14.21;69.30
63194;BME280;49289;51.670;5.624;2023-03-14T05:46:58;98996.28;;;14.42;69.79
63194;BME280;49289;51.670;5.624;2023-03-14T05:48:46;98999.88;;;14.54;69.17
63194;BME280;49289;51.670;5.624;2023-03-14T05:50:34;98987.79;;;14.34;70.00
63194;BME280;49289;51.670;5.624;2023-03-14T05:52:21;98972.11;;;14.34;69.18
63194;BME280;49289;51.670;5.624;2023-03-14T05:54:09;98981.39;;;14.19;70.11
63194;BME280;49289;51.670;5.624;2023-03-14T05:55:57;98976.70;;;14.39;69.36
63194;BME280;49289;51.670;5.624;2023-03-14T05:57:44;98981.27;;;14.78;68.22
63194;BME280;49289;51.670;5.624;2023-03-14T05:59:31;98961.84;;;14.51;68.78
63194;BME280;49289;51.670;5.624;2023-03-14T06:01:18;98958.88;;;14.50;68.23
63194;BME280;49289;51.670;5.624;2023-03-14T06:03:07;98977.58;;;14.73;68.08
63194;BME280;49289;51.670;5.624;2023-03-14T06:04:55;98972.92;;;14.82;68.20
63194;BME280;49289;51.670;5.624;2023-03-14T06:06:42;98954.61;;;15.01;66.98
63194;BME280;49289;51.670;5.624;2023-03-14T06:08:29;98965.09;;;14.76;67.41
63194;BME280;49289;51.670;5.624;2023-03-14T06:10:17;98973.17;;;14.65;67.96
63194;BME280;49289;51.670;5.624;2023-03-14T06:12:05;98953.71;;;14.45;68.71
63194;BME280;49289;51.670;5.624;2023-03-14T06:13:53;98960.69;;;14.84;67.76
63194;BME280;49289;51.670;5.624;2023-03-14T06:15:41;98981.84;;;14.83;68.74
63194;BME280;49289;51.670;5.624;2023-03-14T06:17:28;98967.06;;;14.22;69.24
63194;BME280;49289;51.670;5.624;2023-03-14T06:19:15;98971.27;;;14.50;69.06
63194;BME280;49289;51.670;5.624;2023-03-14T06:21:02;98960.83;;;15.12;67.26
63194;BME280;49289;51.670;5.624;2023-03-14T06:22:49;98983.40;;;14.43;69.23
63194;BME280;49289;51.670;5.624;2023-03-14T06:24:38;98987.81;;;15.04;68.26
63194;BME280;49289;51.670;5.624;2023-03-14T06:26:26;98978.75;;;15.12;67.45
63194;BME280;49289;51.670;5.624;2023-03-14T06:28:14;98964.55;;;15.21;66.27
63194;BME280;49289;51.670;5.624;2023-03-14T06:30:02;98982.17;;;15.43;66.69
63194;BME280;49289;51.670;5.624;2023-03-14T06:31:50;98989.27;;;14.95;67.89
63194;BME280;49289;51.670;5.624;2023-03-14T06:33:38;98984.63;;;14.86;68.35
63194;BME280;49289;51.670;5.624;2023-03-14T06:35:26;98971.95;;;15.04;67.75
63194;BME280;49289;51.670;5.624;2023-03-14T06:37:13;98979.31;;;15.49;66.60
63194;BME280;49289;51.670;5.624;2023-03-14T06:39:00;98989.58;;;15.47;66.70
63194;BME280;49289;51.670;5.624;2023-03-14T06:40:47;98992.30;;;14.69;69.43
63194;BME280;49289;51.670;5.624;2023-03-14T06:42:34;98999.52;;;14.82;69.54
63194;BME280;49289;51.670;5.624;2023-03-14T06:44:22;98995.84;;;14.53;71.10
63194;BME280;49289;51.670;5.624;2023-03-14T06:46:10;98996.72;;;14.58;70.50
63194;BME280;49289;51.670;5.624;2023-03-14T06:47:57;99001.05;;;14.69;70.40
63194;BME280;49289;51.670;5.624;2023-03-14T06:49:44;98998.47;;;14.55;70.86
63194;BME280;49289;51.670;5.624;2023-03-14T06:51:32;99003.91;;;14.25;73.23
63194;BME280;49289;51.670;5.624;2023-03-14T06:53:22;98983.82;;;14.47;72.54
63194;BME280;49289;51.670;5.624;2023-03-14T06:55:11;98994.53;;;15.13;70.48
63194;BME280;49289;51.670;5.624;2023-03-14T06:56:58;98987.66;;;15.03;70.33
63194;BME280;49289;51.670;5.624;2023-03-14T06:58:45;98985.27;;;14.99;70.58
63194;BME280;49289;51.670;5.624;2023-03-14T07:00:32;99010.52;;;14.92;70.65
63194;BME280;49289;51.670;5.624;2023-03-14T07:02:21;98998.09;;;15.25;70.28
63194;BME280;49289;51.670;5.624;2023-03-14T07:04:08;98998.75;;;15.21;69.93
63194;BME280;49289;51.670;5.624;2023-03-14T07:05:55;98990.76;;;14.60;71.38
63194;BME280;49289;51.670;5.624;2023-03-14T07:07:42;98992.16;;;14.83;70.68
63194;BME280;49289;51.670;5.624;2023-03-14T07:09:29;99013.97;;;14.75;71.89
63194;BME280;49289;51.670;5.624;2023-03-14T07:11:16;98995.55;;;14.44;73.51
63194;BME280;49289;51.670;5.624;2023-03-14T07:13:04;99010.53;;;14.39;73.91
63194;BME280;49289;51.670;5.624;2023-03-14T07:14:51;99004.05;;;14.32;74.11
63194;BME280;49289;51.670;5.624;2023-03-14T07:16:39;99004.08;;;14.18;74.81
63194;BME280;49289;51.670;5.624;2023-03-14T07:18:28;99011.53;;;14.70;73.24
63194;BME280;49289;51.670;5.624;2023-03-14T07:20:17;99024.13;;;14.56;73.88
63194;BME280;49289;51.670;5.624;2023-03-14T07:22:04;99015.70;;;14.57;74.15
63194;BME280;49289;51.670;5.624;2023-03-14T07:23:53;99029.52;;;15.06;72.70
63194;BME280;49289;51.670;5.624;2023-03-14T07:25:41;99014.14;;;14.93;72.39
63194;BME280;49289;51.670;5.624;2023-03-14T07:27:29;99029.97;;;14.79;73.34
63194;BME280;49289;51.670;5.624;2023-03-14T07:29:17;99056.86;;;14.61;74.16
63194;BME280;49289;51.670;5.624;2023-03-14T07:31:05;99043.32;;;13.87;76.14
63194;BME280;49289;51.670;5.624;2023-03-14T07:32:52;99098.73;;;12.61;76.37
63194;BME280;49289;51.670;5.624;2023-03-14T07:34:40;99103.77;;;12.33;76.09
63194;BME280;49289;51.670;5.624;2023-03-14T07:36:27;99136.91;;;12.58;75.97
63194;BME280;49289;51.670;5.624;2023-03-14T07:38:15;99140.08;;;12.17;76.53
63194;BME280;49289;51.670;5.624;2023-03-14T07:40:03;99137.78;;;11.79;76.68
63194;BME280;49289;51.670;5.624;2023-03-14T07:41:51;99160.41;;;11.76;77.02
63194;BME280;49289;51.670;5.624;2023-03-14T07:43:39;99157.61;;;12.06;76.96
63194;BME280;49289;51.670;5.624;2023-03-14T07:45:27;99159.32;;;12.05;75.94
63194;BME280;49289;51.670;5.624;2023-03-14T07:47:15;99165.17;;;11.88;76.74
63194;BME280;49289;51.670;5.624;2023-03-14T07:49:03;99162.26;;;12.13;76.18
63194;BME280;49289;51.670;5.624;2023-03-14T07:50:53;99190.61;;;11.94;76.96
63194;BME280;49289;51.670;5.624;2023-03-14T07:52:40;99193.42;;;12.22;76.08
63194;BME280;49289;51.670;5.624;2023-03-14T07:54:27;99201.48;;;12.04;77.10
63194;BME280;49289;51.670;5.624;2023-03-14T07:56:14;99191.76;;;11.62;76.85
63194;BME280;49289;51.670;5.624;2023-03-14T07:58:01;99204.78;;;11.88;76.85
63194;BME280;49289;51.670;5.624;2023-03-14T07:59:48;99207.32;;;11.66;76.83
63194;BME280;49289;51.670;5.624;2023-03-14T08:01:35;99222.33;;;11.58;77.31
63194;BME280;49289;51.670;5.624;2023-03-14T08:03:22;99231.16;;;11.68;78.11
63194;BME280;49289;51.670;5.624;2023-03-14T08:05:10;99233.43;;;11.64;77.93
63194;BME280;49289;51.670;5.624;2023-03-14T08:06:58;99224.32;;;10.88;78.44
63194;BME280;49289;51.670;5.624;2023-03-14T08:08:45;99250.81;;;11.69;78.44
63194;BME280;49289;51.670;5.624;2023-03-14T08:10:34;99250.83;;;11.58;78.59
63194;BME280;49289;51.670;5.624;2023-03-14T08:12:21;99255.59;;;11.71;77.96
63194;BME280;49289;51.670;5.624;2023-03-14T08:14:08;99249.21;;;11.25;78.13
63194;BME280;49289;51.670;5.624;2023-03-14T08:15:55;99272.88;;;11.26;79.61
63194;BME280;49289;51.670;5.624;2023-03-14T08:17:42;99279.03;;;11.26;79.64
63194;BME280;49289;51.670;5.624;2023-03-14T08:19:29;99282.73;;;10.99;80.15
63194;BME280;49289;51.670;5.624;2023-03-14T08:21:17;99287.35;;;11.22;79.29
63194;BME280;49289;51.670;5.624;2023-03-14T08:23:05;99281.21;;;11.69;78.47
63194;BME280;49289;51.670;5.624;2023-03-14T08:24:53;99304.34;;;11.83;78.13
63194;BME280;49289;51.670;5.624;2023-03-14T08:26:40;99291.21;;;11.67;77.79
63194;BME280;49289;51.670;5.624;2023-03-14T08:28:29;99314.67;;;11.71;77.93
63194;BME280;49289;51.670;5.624;2023-03-14T08:32:06;99313.27;;;12.36;76.15
63194;BME280;49289;51.670;5.624;2023-03-14T08:33:54;99325.66;;;12.60;75.06
63194;BME280;49289;51.670;5.624;2023-03-14T08:35:42;99324.52;;;12.61;74.75
63194;BME280;49289;51.670;5.624;2023-03-14T08:37:29;99334.83;;;12.05;75.16
63194;BME280;49289;51.670;5.624;2023-03-14T08:39:16;99357.56;;;11.95;76.11
63194;BME280;49289;51.670;5.624;2023-03-14T08:41:09;99339.30;;;11.95;75.87
63194;BME280;49289;51.670;5.624;2023-03-14T08:42:56;99355.45;;;12.03;75.71
63194;BME280;49289;51.670;5.624;2023-03-14T08:44:44;99370.28;;;11.77;76.27
63194;BME280;49289;51.670;5.624;2023-03-14T08:46:32;99378.91;;;11.86;76.34
63194;BME280;49289;51.670;5.624;2023-03-14T08:48:20;99381.00;;;11.96;75.67
63194;BME280;49289;51.670;5.624;2023-03-14T08:50:09;99376.35;;;12.27;74.28
63194;BME280;49289;51.670;5.624;2023-03-14T08:51:57;99374.69;;;11.90;75.32
63194;BME280;49289;51.670;5.624;2023-03-14T08:53:45;99382.14;;;12.09;74.97
63194;BME280;49289;51.670;5.624;2023-03-14T08:55:32;99405.56;;;11.27;75.56
63194;BME280;49289;51.670;5.624;2023-03-14T08:57:20;99404.64;;;12.06;75.63
63194;BME280;49289;51.670;5.624;2023-03-14T08:59:08;99413.02;;;11.42;74.03
63194;BME280;49289;51.670;5.624;2023-03-14T09:00:56;99404.27;;;11.57;74.37
63194;BME280;49289;51.670;5.624;2023-03-14T09:02:44;99430.69;;;11.55;73.98
63194;BME280;49289;51.670;5.624;2023-03-14T09:04:32;99423.75;;;11.69;73.73
63194;BME280;49289;51.670;5.624;2023-03-14T09:06:20;99428.79;;;11.54;73.56
63194;BME280;49289;51.670;5.624;2023-03-14T09:08:09;99436.70;;;12.41;72.51
63194;BME280;49289;51.670;5.624;2023-03-14T09:09:57;99454.50;;;11.84;73.72
63194;BME280;49289;51.670;5.624;2023-03-14T09:11:44;99456.34;;;12.32;72.51
63194;BME280;49289;51.670;5.624;2023-03-14T09:13:32;99450.55;;;11.70;72.37
63194;BME280;49289;51.670;5.624;2023-03-14T09:15:21;99457.92;;;11.88;72.87
63194;BME280;49289;51.670;5.624;2023-03-14T09:17:08;99484.44;;;12.10;72.16
63194;BME280;49289;51.670;5.624;2023-03-14T09:18:55;99494.03;;;12.01;72.18
63194;BME280;49289;51.670;5.624;2023-03-14T09:20:42;99518.49;;;11.82;72.17
63194;BME280;49289;51.670;5.624;2023-03-14T09:22:29;99512.17;;;10.76;72.68
63194;BME280;49289;51.670;5.624;2023-03-14T09:24:16;99525.84;;;10.53;73.82
63194;BME280;49289;51.670;5.624;2023-03-14T09:26:06;99539.40;;;10.70;73.74
63194;BME280;49289;51.670;5.624;2023-03-14T09:27:53;99539.30;;;10.01;74.99
63194;BME280;49289;51.670;5.624;2023-03-14T09:29:41;99559.66;;;10.81;74.22
63194;BME280;49289;51.670;5.624;2023-03-14T09:31:29;99587.20;;;10.46;74.51
63194;BME280;49289;51.670;5.624;2023-03-14T09:33:17;99570.00;;;10.51;74.82
63194;BME280;49289;51.670;5.624;2023-03-14T09:35:04;99604.47;;;10.67;75.03